Time;durP1;ratioP1;P1;durP2;ratioP2;P2;SDS_P1;SDS_P2;PMS_P1;PMS_P2;Temp;Humidity;BMP_temperature;BMP_pressure;BME280_temperature;BME280_humidity;BME280_pressure;Samples;Min_cycle;Max_cycle;Signal;HPM_P1;HPM_P2
2023/08/01 00:01:35;;;;;;;;;;;;;;;22.24;60.57;99644.94;5060962;28;4157;-65
2023/08/01 00:04:01;;;;;;;;;;;;;;;22.24;60.46;99642.06;5034732;28;4211;-66
2023/08/01 00:06:28;;;;;;;;;;;;;;;22.24;60.55;99645.69;5059960;28;4302;-65
2023/08/01 00:08:54;;;;;;;;;;;;;;;22.24;60.52;99639.19;5060776;28;4103;-66
2023/08/01 00:11:21;;;;;;;;;;;;;;;22.24;60.35;99636.28;5060078;28;3971;-66
2023/08/01 00:13:47;;;;;;;;;;;;;;;22.23;60.39;99635.56;5059980;28;3925;-66
2023/08/01 00:16:13;;;;;;;;;;;;;;;22.22;60.45;99627.59;5059396;28;4221;-66
2023/08/01 00:18:40;;;;;;;;;;;;;;;22.23;60.66;99623.31;5060166;28;4427;-65
2023/08/01 00:21:09;;;;;;;;;;;;;;;22.22;60.59;99616.81;5061081;28;4107;-66
2023/08/01 00:23:36;;;;;;;;;;;;;;;22.21;60.65;99614.59;5059471;28;4121;-66
2023/08/01 00:26:02;;;;;;;;;;;;;;;22.22;60.71;99598.78;5059899;28;4125;-66
2023/08/01 00:28:29;;;;;;;;;;;;;;;22.22;60.67;99593.75;5060385;28;4104;-66
2023/08/01 00:31:05;;;;;;;;;;;;;;;22.21;60.66;99592.28;5036047;28;5082;-66
2023/08/01 00:33:32;;;;;;;;;;;;;;;22.21;60.49;99580.00;5059616;28;4143;-65
2023/08/01 00:35:58;;;;;;;;;;;;;;;22.22;60.77;99575.69;5059902;28;3968;-66
2023/08/01 00:38:25;;;;;;;;;;;;;;;22.22;60.48;99578.59;5042630;28;4086;-65
2023/08/01 00:40:51;;;;;;;;;;;;;;;22.21;60.67;99580.00;5043123;28;4159;-66
2023/08/01 00:43:18;;;;;;;;;;;;;;;22.21;60.54;99585.75;5059962;28;3928;-66
2023/08/01 00:45:44;;;;;;;;;;;;;;;22.22;60.70;99582.22;5059568;28;4821;-66
2023/08/01 00:48:11;;;;;;;;;;;;;;;22.22;60.34;99581.47;5042800;28;4499;-66
2023/08/01 00:50:38;;;;;;;;;;;;;;;22.21;60.69;99572.09;5058675;28;4105;-66
2023/08/01 00:53:05;;;;;;;;;;;;;;;22.21;60.45;99577.09;5059919;28;4054;-66
2023/08/01 00:55:32;;;;;;;;;;;;;;;22.21;60.64;99571.34;5058864;28;3983;-65
2023/08/01 00:57:58;;;;;;;;;;;;;;;22.21;60.69;99569.22;5061025;28;4360;-66
2023/08/01 01:00:25;;;;;;;;;;;;;;;22.20;60.61;99558.38;5041718;28;4196;-66
2023/08/01 01:02:51;;;;;;;;;;;;;;;22.22;60.83;99561.28;5058116;28;4125;-66
2023/08/01 01:05:18;;;;;;;;;;;;;;;22.20;60.43;99550.44;5059418;28;4205;-66
2023/08/01 01:07:44;;;;;;;;;;;;;;;22.20;60.53;99552.59;5031988;28;4139;-66
2023/08/01 01:10:11;;;;;;;;;;;;;;;22.20;60.81;99552.59;5058737;28;4127;-66
2023/08/01 01:12:38;;;;;;;;;;;;;;;22.20;60.47;99555.47;5045892;28;4429;-66
2023/08/01 01:15:05;;;;;;;;;;;;;;;22.21;60.51;99545.41;5060273;28;4495;-66
2023/08/01 01:17:31;;;;;;;;;;;;;;;22.20;60.52;99541.06;5058721;28;4050;-65
2023/08/01 01:19:58;;;;;;;;;;;;;;;22.20;60.39;99518.72;5059491;28;4069;-66
2023/08/01 01:22:25;;;;;;;;;;;;;;;22.17;60.48;99494.91;5064182;28;4203;-66
2023/08/01 01:24:51;;;;;;;;;;;;;;;22.20;60.67;99486.28;5066644;28;4128;-66
2023/08/01 01:27:18;;;;;;;;;;;;;;;22.20;60.48;99486.28;5036365;28;4190;-66
2023/08/01 01:29:44;;;;;;;;;;;;;;;22.21;60.66;99487.72;5035056;28;4555;-66
2023/08/01 01:32:11;;;;;;;;;;;;;;;22.19;60.49;99482.66;5062362;28;3901;-66
2023/08/01 01:34:37;;;;;;;;;;;;;;;22.18;60.60;99502.09;5066345;28;4303;-66
2023/08/01 01:37:04;;;;;;;;;;;;;;;22.20;60.81;99486.28;5048983;28;4117;-66
2023/08/01 01:39:30;;;;;;;;;;;;;;;22.19;60.33;99474.00;5065737;28;4267;-66
2023/08/01 01:41:56;;;;;;;;;;;;;;;22.18;60.49;99473.28;5066236;28;4065;-66
2023/08/01 01:44:23;;;;;;;;;;;;;;;22.20;60.47;99480.53;5047804;28;4516;-66
2023/08/01 01:46:49;;;;;;;;;;;;;;;22.20;60.62;99477.63;5066547;28;4119;-66
2023/08/01 01:49:16;;;;;;;;;;;;;;;22.18;60.61;99476.16;5037703;28;5137;-66
2023/08/01 01:51:42;;;;;;;;;;;;;;;22.20;60.60;99478.34;5065709;28;4154;-66
2023/08/01 01:54:09;;;;;;;;;;;;;;;22.17;60.51;99459.56;5065581;28;4251;-66
2023/08/01 01:56:35;;;;;;;;;;;;;;;22.18;60.43;99455.97;5063645;28;4089;-65
2023/08/01 01:59:02;;;;;;;;;;;;;;;22.18;60.56;99446.59;5053623;28;4198;-66
2023/08/01 02:01:28;;;;;;;;;;;;;;;22.18;60.65;99421.38;5047745;28;3991;-66
2023/08/01 02:03:55;;;;;;;;;;;;;;;22.18;60.47;99432.91;5047589;28;4142;-66
2023/08/01 02:06:21;;;;;;;;;;;;;;;22.17;60.36;99434.34;5064701;28;4002;-66
2023/08/01 02:08:48;;;;;;;;;;;;;;;22.18;60.36;99420.66;5047460;28;4231;-65
2023/08/01 02:11:15;;;;;;;;;;;;;;;22.18;60.51;99417.78;5048056;28;4172;-65
2023/08/01 02:13:42;;;;;;;;;;;;;;;22.16;60.70;99406.22;5064520;28;4160;-66
2023/08/01 02:16:08;;;;;;;;;;;;;;;22.17;60.42;99410.53;5064879;28;4141;-66
2023/08/01 02:18:35;;;;;;;;;;;;;;;22.18;60.58;99409.84;5064908;28;4448;-66
2023/08/01 02:21:01;;;;;;;;;;;;;;;22.18;60.68;99398.31;5065215;28;4060;-66
2023/08/01 02:23:28;;;;;;;;;;;;;;;22.18;60.40;99398.31;5062537;28;4153;-66
2023/08/01 02:25:55;;;;;;;;;;;;;;;22.20;60.53;99411.31;5035260;28;4141;-66
2023/08/01 02:28:22;;;;;;;;;;;;;;;22.17;60.62;99408.41;5064753;28;4497;-66
2023/08/01 02:30:50;;;;;;;;;;;;;;;22.17;60.71;99407.66;5064617;28;4070;-66
2023/08/01 02:33:16;;;;;;;;;;;;;;;22.17;60.51;99405.53;5061499;28;4148;-66
2023/08/01 02:35:43;;;;;;;;;;;;;;;22.17;60.42;99396.88;5061202;28;4084;-66
2023/08/01 02:38:09;;;;;;;;;;;;;;;22.17;60.45;99391.09;5061605;28;4066;-66
2023/08/01 02:40:36;;;;;;;;;;;;;;;22.17;60.47;99391.09;5060820;28;4162;-66
2023/08/01 02:43:02;;;;;;;;;;;;;;;22.17;60.67;99385.34;5061304;28;4185;-66
2023/08/01 02:45:29;;;;;;;;;;;;;;;22.17;60.48;99382.47;5061777;28;4016;-66
2023/08/01 02:47:55;;;;;;;;;;;;;;;22.17;60.71;99379.56;5050956;28;4062;-66
2023/08/01 02:50:24;;;;;;;;;;;;;;;22.17;60.34;99385.34;5042491;28;4031;-65
2023/08/01 02:52:51;;;;;;;;;;;;;;;22.16;60.64;99383.88;5061951;28;5274;-66
2023/08/01 02:55:17;;;;;;;;;;;;;;;22.16;60.61;99372.34;5035450;28;3928;-66
2023/08/01 02:57:43;;;;;;;;;;;;;;;22.17;60.62;99382.47;5061064;28;4104;-66
2023/08/01 03:00:11;;;;;;;;;;;;;;;22.17;60.44;99375.94;5043468;28;4110;-66
2023/08/01 03:02:38;;;;;;;;;;;;;;;22.16;60.42;99366.56;5059301;28;4158;-66
2023/08/01 03:05:06;;;;;;;;;;;;;;;22.16;60.37;99360.81;5062693;28;4083;-66
2023/08/01 03:07:32;;;;;;;;;;;;;;;22.14;60.76;99366.53;5061042;28;4285;-66
2023/08/01 03:09:59;;;;;;;;;;;;;;;22.14;60.63;99351.41;5062474;28;3904;-66
2023/08/01 03:12:25;;;;;;;;;;;;;;;22.15;60.78;99353.59;5061409;28;4149;-66
2023/08/01 03:14:51;;;;;;;;;;;;;;;22.14;60.78;99349.25;5060783;28;4091;-68
2023/08/01 03:17:18;;;;;;;;;;;;;;;22.13;60.82;99344.91;5059588;28;4211;-68
2023/08/01 03:19:44;;;;;;;;;;;;;;;22.14;60.77;99345.63;5061017;28;4288;-68
2023/08/01 03:22:11;;;;;;;;;;;;;;;22.17;60.49;99344.22;5061679;28;4008;-66
2023/08/01 03:24:37;;;;;;;;;;;;;;;22.15;60.57;99339.19;5061144;28;4317;-66
2023/08/01 03:27:04;;;;;;;;;;;;;;;22.14;60.44;99329.06;5043453;28;4168;-66
2023/08/01 03:29:30;;;;;;;;;;;;;;;22.15;60.65;99321.88;5061003;28;4098;-66
2023/08/01 03:31:56;;;;;;;;;;;;;;;22.15;60.35;99324.03;5060817;28;4163;-66
2023/08/01 03:34:23;;;;;;;;;;;;;;;22.14;60.51;99326.19;5060686;28;3989;-66
2023/08/01 03:36:50;;;;;;;;;;;;;;;22.12;60.82;99326.16;5061370;28;4243;-66
2023/08/01 03:39:16;;;;;;;;;;;;;;;22.12;60.70;99320.38;5060703;28;4055;-66
2023/08/01 03:41:43;;;;;;;;;;;;;;;22.14;60.70;99313.94;5041830;28;4276;-66
2023/08/01 03:44:09;;;;;;;;;;;;;;;22.14;60.77;99317.53;5059858;28;4188;-66
2023/08/01 03:46:35;;;;;;;;;;;;;;;22.14;60.49;99308.88;5042726;28;4175;-65
2023/08/01 03:49:02;;;;;;;;;;;;;;;22.12;60.89;99311.75;5061736;28;4081;-66
2023/08/01 03:51:28;;;;;;;;;;;;;;;22.13;60.67;99315.38;5059953;28;4137;-66
2023/08/01 03:53:55;;;;;;;;;;;;;;;22.13;60.65;99316.09;5047896;28;4337;-66
2023/08/01 03:56:39;;;;;;;;;;;;;;;22.13;60.71;99309.59;5060267;28;4317;-65
2023/08/01 03:59:06;;;;;;;;;;;;;;;22.14;60.65;99320.41;5060838;28;4062;-66
2023/08/01 04:01:32;;;;;;;;;;;;;;;22.14;60.71;99311.78;5059195;28;4122;-65
2023/08/01 04:03:58;;;;;;;;;;;;;;;22.12;60.67;99297.31;5060414;28;3961;-66
2023/08/01 04:06:25;;;;;;;;;;;;;;;22.13;60.71;99293.03;5060356;28;3919;-66
2023/08/01 04:08:52;;;;;;;;;;;;;;;22.14;60.44;99306.00;5059141;28;4069;-66
2023/08/01 04:11:18;;;;;;;;;;;;;;;22.14;60.56;99305.28;5060042;28;3951;-65
2023/08/01 04:13:45;;;;;;;;;;;;;;;22.14;60.71;99300.25;5059821;28;3986;-66
2023/08/01 04:16:11;;;;;;;;;;;;;;;22.13;60.74;99293.03;5060990;28;4321;-66
2023/08/01 04:18:38;;;;;;;;;;;;;;;22.13;60.49;99300.97;5058658;28;4131;-65
2023/08/01 04:21:04;;;;;;;;;;;;;;;22.13;60.75;99298.06;5060434;28;4040;-66
2023/08/01 04:23:30;;;;;;;;;;;;;;;22.13;60.65;99298.06;5059646;28;4176;-66
2023/08/01 04:25:58;;;;;;;;;;;;;;;22.12;60.73;99297.31;5059744;28;4277;-66
2023/08/01 04:28:25;;;;;;;;;;;;;;;22.13;60.54;99292.31;5060297;28;4018;-66
2023/08/01 04:30:51;;;;;;;;;;;;;;;22.12;60.71;99285.78;5060660;28;4031;-66
2023/08/01 04:33:18;;;;;;;;;;;;;;;22.13;60.51;99284.38;5058715;28;4500;-65
2023/08/01 04:35:44;;;;;;;;;;;;;;;22.12;60.74;99291.56;5060594;28;4110;-65
2023/08/01 04:38:14;;;;;;;;;;;;;;;22.12;60.47;99291.56;5060204;28;4412;-66
2023/08/01 04:40:41;;;;;;;;;;;;;;;22.13;60.73;99287.25;5059495;28;4115;-66
2023/08/01 04:43:07;;;;;;;;;;;;;;;22.12;60.49;99290.84;5060855;28;4045;-66
2023/08/01 04:45:34;;;;;;;;;;;;;;;22.11;60.74;99281.47;5058525;28;4092;-65
2023/08/01 04:48:00;;;;;;;;;;;;;;;22.09;60.67;99275.66;5059235;28;4528;-66
2023/08/01 04:50:26;;;;;;;;;;;;;;;22.09;60.73;99269.91;5059967;28;4326;-66
2023/08/01 04:52:53;;;;;;;;;;;;;;;22.09;60.55;99264.13;5058467;28;4104;-67
2023/08/01 04:55:19;;;;;;;;;;;;;;;22.10;60.63;99256.22;5058745;28;4186;-66
2023/08/01 04:57:46;;;;;;;;;;;;;;;22.09;60.50;99249.72;5057697;28;4134;-66
2023/08/01 05:00:12;;;;;;;;;;;;;;;22.09;60.81;99246.84;5059662;28;4138;-66
2023/08/01 05:02:39;;;;;;;;;;;;;;;22.10;60.71;99242.53;5058228;28;4502;-66
2023/08/01 05:05:05;;;;;;;;;;;;;;;22.10;60.52;99233.88;5060560;28;4439;-66
2023/08/01 05:07:32;;;;;;;;;;;;;;;22.10;60.48;99236.75;5059211;28;4334;-65
2023/08/01 05:09:58;;;;;;;;;;;;;;;22.11;60.72;99232.47;5060215;28;4025;-66
2023/08/01 05:12:25;;;;;;;;;;;;;;;22.08;60.74;99222.34;5058993;28;4963;-66
2023/08/01 05:14:51;;;;;;;;;;;;;;;22.10;60.81;99224.50;5059090;28;4077;-66
2023/08/01 05:17:17;;;;;;;;;;;;;;;22.09;60.40;99223.06;5059866;28;4211;-66
2023/08/01 05:19:44;;;;;;;;;;;;;;;22.08;60.72;99225.22;5058035;28;4133;-66
2023/08/01 05:22:10;;;;;;;;;;;;;;;22.08;60.54;99222.34;5060153;28;4398;-66
2023/08/01 05:24:37;;;;;;;;;;;;;;;22.08;60.60;99210.81;5058691;28;4482;-76
2023/08/01 05:27:03;;;;;;;;;;;;;;;22.09;60.70;99220.91;5060220;28;4006;-68
2023/08/01 05:29:29;;;;;;;;;;;;;;;22.10;60.73;99219.47;5058812;28;4134;-68
2023/08/01 05:31:56;;;;;;;;;;;;;;;22.09;60.64;99220.91;5058673;28;4008;-68
2023/08/01 05:34:22;;;;;;;;;;;;;;;22.09;60.48;99223.78;5059734;28;4222;-68
2023/08/01 05:36:50;;;;;;;;;;;;;;;22.11;60.72;99220.94;5060049;28;4439;-67
2023/08/01 05:39:16;;;;;;;;;;;;;;;22.11;60.37;99215.16;5060049;28;4163;-67
2023/08/01 05:41:43;;;;;;;;;;;;;;;22.12;60.40;99219.50;5058089;28;4101;-67
2023/08/01 05:44:09;;;;;;;;;;;;;;;22.09;60.36;99211.53;5059424;28;4174;-67
2023/08/01 05:46:36;;;;;;;;;;;;;;;22.09;60.61;99217.31;5056938;28;4056;-67
2023/08/01 05:49:02;;;;;;;;;;;;;;;22.09;60.63;99206.50;5033294;28;4099;-68
2023/08/01 05:51:28;;;;;;;;;;;;;;;22.09;60.57;99209.38;5058690;28;4139;-68
2023/08/01 05:53:55;;;;;;;;;;;;;;;22.09;60.51;99205.78;5059263;28;4487;-68
2023/08/01 05:56:21;;;;;;;;;;;;;;;22.09;60.47;99206.50;5058076;28;4166;-68
2023/08/01 05:58:48;;;;;;;;;;;;;;;22.09;60.79;99212.25;5057646;28;4037;-68
2023/08/01 06:01:14;;;;;;;;;;;;;;;22.10;60.56;99207.22;5058903;28;4160;-67
2023/08/01 06:03:40;;;;;;;;;;;;;;;22.12;60.60;99199.31;5057302;28;4115;-68
2023/08/01 06:06:07;;;;;;;;;;;;;;;22.11;60.34;99197.88;5057630;28;4210;-68
2023/08/01 06:08:34;;;;;;;;;;;;;;;22.11;60.32;99208.69;5061734;28;4105;-67
2023/08/01 06:11:00;;;;;;;;;;;;;;;22.09;60.65;99203.63;5062964;28;4389;-67
2023/08/01 06:13:26;;;;;;;;;;;;;;;22.08;60.50;99210.81;5062500;28;4127;-67
2023/08/01 06:15:53;;;;;;;;;;;;;;;22.10;60.51;99210.81;5060444;28;4190;-67
2023/08/01 06:18:19;;;;;;;;;;;;;;;22.09;60.54;99212.25;5062539;28;3989;-67
2023/08/01 06:20:46;;;;;;;;;;;;;;;22.11;60.65;99206.53;5062269;28;4155;-67
2023/08/01 06:23:12;;;;;;;;;;;;;;;22.11;60.67;99205.81;5061190;28;4191;-67
2023/08/01 06:25:39;;;;;;;;;;;;;;;22.11;60.70;99197.88;5061798;28;4316;-67
2023/08/01 06:28:05;;;;;;;;;;;;;;;22.12;60.62;99204.38;5062686;28;4076;-68
2023/08/01 06:30:31;;;;;;;;;;;;;;;22.11;60.40;99203.63;5061724;28;4032;-66
2023/08/01 06:32:58;;;;;;;;;;;;;;;22.11;60.44;99197.88;5062689;28;4228;-67
2023/08/01 06:35:24;;;;;;;;;;;;;;;22.10;60.57;99196.41;5061691;28;4119;-68
2023/08/01 06:37:51;;;;;;;;;;;;;;;22.10;60.51;99207.22;5061486;28;4148;-67
2023/08/01 06:40:17;;;;;;;;;;;;;;;22.11;60.74;99202.91;5062516;28;4463;-68
2023/08/01 06:42:44;;;;;;;;;;;;;;;22.09;60.59;99182.72;5061707;28;4500;-68
2023/08/01 06:45:10;;;;;;;;;;;;;;;22.10;60.56;99190.63;5063109;28;4008;-67
2023/08/01 06:47:37;;;;;;;;;;;;;;;22.10;60.38;99189.91;5062304;28;4198;-67
2023/08/01 06:50:04;;;;;;;;;;;;;;;22.09;60.57;99194.25;5061781;28;4091;-67
2023/08/01 06:52:31;;;;;;;;;;;;;;;22.09;60.38;99194.97;5061090;28;4117;-67
2023/08/01 06:54:57;;;;;;;;;;;;;;;22.09;60.34;99189.19;5061385;28;4098;-67
2023/08/01 06:57:24;;;;;;;;;;;;;;;22.09;60.60;99189.19;5062050;28;4505;-67
2023/08/01 06:59:50;;;;;;;;;;;;;;;22.09;60.82;99188.47;5059733;28;4442;-67
2023/08/01 07:02:16;;;;;;;;;;;;;;;22.08;60.37;99190.63;5060865;28;4071;-67
2023/08/01 07:04:43;;;;;;;;;;;;;;;22.08;60.85;99179.09;5061044;28;4119;-67
2023/08/01 07:07:09;;;;;;;;;;;;;;;22.09;60.73;99183.44;5063153;28;4525;-68
2023/08/01 07:09:36;;;;;;;;;;;;;;;22.11;60.44;99185.63;5061727;28;3973;-67
2023/08/01 07:12:03;;;;;;;;;;;;;;;22.11;60.61;99191.38;5061417;28;3977;-67
2023/08/01 07:14:29;;;;;;;;;;;;;;;22.10;60.42;99179.09;5060270;28;4134;-68
2023/08/01 07:16:55;;;;;;;;;;;;;;;22.09;60.36;99180.56;5060121;28;3964;-68
2023/08/01 07:19:22;;;;;;;;;;;;;;;22.10;60.30;99190.63;5060867;28;4411;-67
2023/08/01 07:21:49;;;;;;;;;;;;;;;22.10;60.34;99184.88;5060876;28;4142;-67
2023/08/01 07:24:16;;;;;;;;;;;;;;;22.08;60.65;99184.88;5060983;28;4032;-67
2023/08/01 07:26:42;;;;;;;;;;;;;;;22.10;60.38;99178.41;5060997;28;5093;-68
2023/08/01 07:29:10;;;;;;;;;;;;;;;22.09;60.60;99162.53;5062622;28;4151;-67
2023/08/01 07:31:37;;;;;;;;;;;;;;;22.10;60.57;99161.81;5060611;28;4158;-67
2023/08/01 07:34:03;;;;;;;;;;;;;;;22.09;60.60;99163.25;5061661;28;4502;-67
2023/08/01 07:36:29;;;;;;;;;;;;;;;22.10;60.54;99167.59;5061126;28;4127;-68
2023/08/01 07:38:56;;;;;;;;;;;;;;;22.10;60.66;99150.28;5061602;28;3951;-67
2023/08/01 07:41:22;;;;;;;;;;;;;;;22.10;60.57;99144.53;5060780;28;4090;-68
2023/08/01 07:43:49;;;;;;;;;;;;;;;22.11;60.56;99151.03;5059377;28;4057;-68
2023/08/01 07:46:15;;;;;;;;;;;;;;;22.10;60.29;99155.34;5061005;28;4562;-68
2023/08/01 07:48:41;;;;;;;;;;;;;;;22.10;60.59;99144.53;5060353;28;5638;-68
2023/08/01 07:51:09;;;;;;;;;;;;;;;22.11;60.58;99142.38;5062103;28;4100;-68
2023/08/01 07:53:35;;;;;;;;;;;;;;;22.11;60.52;99146.00;5058625;28;4470;-68
2023/08/01 07:56:02;;;;;;;;;;;;;;;22.11;60.27;99148.88;5060538;28;4342;-68
2023/08/01 07:58:29;;;;;;;;;;;;;;;22.10;60.56;99147.41;5060019;28;4330;-68
2023/08/01 08:00:55;;;;;;;;;;;;;;;22.11;60.31;99146.00;5059687;28;4452;-68
2023/08/01 08:03:23;;;;;;;;;;;;;;;22.10;60.23;99153.16;5061625;28;4074;-68
2023/08/01 08:05:49;;;;;;;;;;;;;;;22.11;60.34;99171.94;5059745;28;4034;-68
2023/08/01 08:08:16;;;;;;;;;;;;;;;22.11;60.33;99180.59;5061032;28;4071;-68
2023/08/01 08:10:42;;;;;;;;;;;;;;;22.11;60.48;99177.69;5060220;28;3940;-68
2023/08/01 08:13:09;;;;;;;;;;;;;;;22.11;60.30;99169.06;5060309;28;4160;-68
2023/08/01 08:15:35;;;;;;;;;;;;;;;22.11;60.33;99160.41;5058793;28;4452;-68
2023/08/01 08:18:04;;;;;;;;;;;;;;;22.11;60.35;99151.75;5061129;28;3923;-68
2023/08/01 08:20:31;;;;;;;;;;;;;;;22.11;60.62;99157.53;5059752;28;4069;-68
2023/08/01 08:22:57;;;;;;;;;;;;;;;22.10;60.52;99150.28;5060152;28;4262;-68
2023/08/01 08:25:24;;;;;;;;;;;;;;;22.11;60.23;99154.63;5060828;28;4153;-68
2023/08/01 08:27:50;;;;;;;;;;;;;;;22.11;60.55;99157.53;5059381;28;4371;-68
2023/08/01 08:30:17;;;;;;;;;;;;;;;22.12;60.65;99158.25;5058760;28;4325;-68
2023/08/01 08:32:43;;;;;;;;;;;;;;;22.11;60.58;99163.28;5058597;28;4515;-68
2023/08/01 08:35:11;;;;;;;;;;;;;;;22.12;60.18;99161.84;5059625;28;4533;-68
2023/08/01 08:37:37;;;;;;;;;;;;;;;22.10;60.42;99149.56;5060160;28;4139;-68
2023/08/01 08:40:03;;;;;;;;;;;;;;;22.09;60.39;99160.38;5060393;28;4148;-68
2023/08/01 08:42:32;;;;;;;;;;;;;;;22.08;60.31;99161.81;5059646;28;4173;-69
2023/08/01 08:44:59;;;;;;;;;;;;;;;22.12;60.58;99158.25;5060281;28;4105;-67
2023/08/01 08:47:25;;;;;;;;;;;;;;;22.11;60.32;99154.63;5030915;28;4018;-68
2023/08/01 08:49:52;;;;;;;;;;;;;;;22.12;60.17;99153.19;5059452;28;4108;-68
2023/08/01 08:52:18;;;;;;;;;;;;;;;22.12;60.11;99149.59;5059512;28;4000;-68
2023/08/01 08:54:45;;;;;;;;;;;;;;;22.13;60.19;99162.59;5058499;28;4241;-68
2023/08/01 08:57:11;;;;;;;;;;;;;;;22.12;60.48;99146.72;5058729;28;3991;-68
2023/08/01 08:59:37;;;;;;;;;;;;;;;22.12;60.38;99147.44;5057609;28;4160;-68
2023/08/01 09:02:04;;;;;;;;;;;;;;;22.12;60.25;99140.94;5058610;28;4243;-68
2023/08/01 09:04:33;;;;;;;;;;;;;;;22.12;60.35;99153.19;5059334;28;3997;-68
2023/08/01 09:07:01;;;;;;;;;;;;;;;22.12;60.20;99153.19;5060133;28;5578;-68
2023/08/01 09:09:28;;;;;;;;;;;;;;;22.12;60.33;99153.19;5058331;28;3989;-68
2023/08/01 09:11:57;;;;;;;;;;;;;;;22.12;60.57;99147.44;5059096;28;4120;-69
2023/08/01 09:14:23;;;;;;;;;;;;;;;22.12;60.49;99158.97;5059430;28;4141;-69
2023/08/01 09:16:50;;;;;;;;;;;;;;;22.12;60.32;99140.94;5058893;28;4136;-68
2023/08/01 09:19:17;;;;;;;;;;;;;;;22.11;60.29;99148.88;5058722;28;4187;-68
2023/08/01 09:21:43;;;;;;;;;;;;;;;22.12;60.46;99146.72;5058171;28;4071;-68
2023/08/01 09:24:10;;;;;;;;;;;;;;;22.13;60.20;99142.41;5059367;28;4055;-68
2023/08/01 09:26:36;;;;;;;;;;;;;;;22.12;60.33;99144.56;5058837;28;4015;-68
2023/08/01 09:29:03;;;;;;;;;;;;;;;22.13;60.54;99148.19;5058925;28;4075;-68
2023/08/01 09:31:30;;;;;;;;;;;;;;;22.12;60.23;99144.56;5058448;28;4145;-68
2023/08/01 09:33:57;;;;;;;;;;;;;;;22.12;60.27;99143.84;5059425;28;4345;-68
2023/08/01 09:36:25;;;;;;;;;;;;;;;22.11;60.24;99134.47;5058922;28;3957;-68
2023/08/01 09:38:52;;;;;;;;;;;;;;;22.13;60.20;99130.88;5058093;28;4213;-68
2023/08/01 09:41:18;;;;;;;;;;;;;;;22.12;60.36;99135.91;5032879;28;4161;-68
2023/08/01 09:43:45;;;;;;;;;;;;;;;22.12;60.25;99132.31;5062300;28;4284;-68
2023/08/01 09:46:11;;;;;;;;;;;;;;;22.12;60.24;99129.41;5063248;28;4580;-68
2023/08/01 09:48:38;;;;;;;;;;;;;;;22.12;60.47;99135.19;5062558;28;4137;-68
2023/08/01 09:51:05;;;;;;;;;;;;;;;22.11;60.39;99146.00;5063463;28;3982;-67
2023/08/01 09:53:32;;;;;;;;;;;;;;;22.12;60.29;99143.84;5061481;28;4343;-67
2023/08/01 09:55:59;;;;;;;;;;;;;;;22.12;60.48;99147.44;5062562;28;4105;-68
2023/08/01 09:58:26;;;;;;;;;;;;;;;22.11;60.29;99140.22;5063090;28;4111;-67
2023/08/01 10:00:52;;;;;;;;;;;;;;;22.12;60.47;99135.91;5034227;28;4089;-68
2023/08/01 10:03:19;;;;;;;;;;;;;;;22.11;60.20;99134.47;5062718;28;3984;-68
2023/08/01 10:05:48;;;;;;;;;;;;;;;22.12;60.21;99135.19;5043785;28;4122;-68
2023/08/01 10:08:14;;;;;;;;;;;;;;;22.11;60.54;99137.34;5033781;28;4281;-68
2023/08/01 10:10:40;;;;;;;;;;;;;;;22.12;60.52;99135.19;5061161;28;6195;-68
2023/08/01 10:13:07;;;;;;;;;;;;;;;22.11;60.17;99134.47;5063209;28;4048;-67
2023/08/01 10:15:34;;;;;;;;;;;;;;;22.13;60.23;99151.78;5033601;28;4116;-67
2023/08/01 10:18:01;;;;;;;;;;;;;;;22.12;60.35;99170.50;5033408;28;4303;-68
2023/08/01 10:20:27;;;;;;;;;;;;;;;22.12;60.28;99176.25;5034127;28;3952;-68
2023/08/01 10:22:54;;;;;;;;;;;;;;;22.12;60.49;99187.78;5032375;28;4151;-68
2023/08/01 10:25:21;;;;;;;;;;;;;;;22.12;60.43;99182.03;5036794;28;4379;-67
2023/08/01 10:27:57;;;;;;;;;;;;;;;22.11;60.64;99177.69;5034049;28;4144;-68
2023/08/01 10:30:27;;;;;;;;;;;;;;;22.12;60.42;99184.19;5062484;28;4163;-68
2023/08/01 10:32:57;;;;;;;;;;;;;;;22.12;60.35;99187.78;5061726;28;4101;-68
2023/08/01 10:35:33;;;;;;;;;;;;;;;22.12;60.45;99187.78;5061985;28;4129;-68
2023/08/01 10:38:09;;;;;;;;;;;;;;;22.11;60.26;99186.34;5062074;28;4156;-68
2023/08/01 10:40:41;;;;;;;;;;;;;;;22.13;60.29;99188.53;5061318;28;4309;-68
2023/08/01 10:43:22;;;;;;;;;;;;;;;22.12;60.33;99199.31;5061834;28;4118;-68
2023/08/01 10:45:59;;;;;;;;;;;;;;;22.13;60.51;99205.84;5061143;28;4443;-68
2023/08/01 10:48:26;;;;;;;;;;;;;;;22.12;60.41;99205.09;5062271;28;4140;-68
2023/08/01 10:50:56;;;;;;;;;;;;;;;22.13;60.22;99205.84;5062484;28;3917;-68
2023/08/01 10:53:22;;;;;;;;;;;;;;;22.13;60.38;99212.31;5060282;28;4197;-68
2023/08/01 10:55:49;;;;;;;;;;;;;;;22.11;60.57;99195.00;5034225;28;4107;-68
2023/08/01 10:58:15;;;;;;;;;;;;;;;22.12;60.41;99205.09;5062721;28;4257;-68
2023/08/01 11:00:42;;;;;;;;;;;;;;;22.12;60.58;99199.31;5060171;28;4089;-68
2023/08/01 11:03:08;;;;;;;;;;;;;;;22.11;60.39;99195.00;5061560;28;3991;-68
2023/08/01 11:05:35;;;;;;;;;;;;;;;22.11;60.61;99200.75;5060377;28;4009;-68
2023/08/01 11:08:02;;;;;;;;;;;;;;;22.11;60.80;99200.75;5062675;28;4134;-68
2023/08/01 11:10:29;;;;;;;;;;;;;;;22.12;60.34;99210.13;5060639;28;4096;-68
2023/08/01 11:12:55;;;;;;;;;;;;;;;22.11;60.64;99200.03;5061181;28;5154;-68
2023/08/01 11:15:21;;;;;;;;;;;;;;;22.13;60.47;99205.84;5061622;28;4041;-68
2023/08/01 11:17:49;;;;;;;;;;;;;;;22.12;60.65;99215.91;5060385;28;4023;-68
2023/08/01 11:20:16;;;;;;;;;;;;;;;22.12;60.45;99228.13;5061848;28;4523;-68
2023/08/01 11:22:52;;;;;;;;;;;;;;;22.12;60.65;99224.53;5061514;28;4135;-68
2023/08/01 11:25:19;;;;;;;;;;;;;;;22.12;60.28;99228.13;5062111;28;4264;-68
2023/08/01 11:27:45;;;;;;;;;;;;;;;22.11;60.83;99220.94;5041368;28;4205;-68
2023/08/01 11:30:12;;;;;;;;;;;;;;;22.10;60.58;99227.38;5062129;28;3888;-67
2023/08/01 11:32:38;;;;;;;;;;;;;;;22.08;60.70;99222.34;5059880;28;3942;-66
2023/08/01 11:35:05;;;;;;;;;;;;;;;22.10;60.39;99213.69;5060820;28;4149;-66
2023/08/01 11:37:31;;;;;;;;;;;;;;;22.11;60.38;99215.16;5060760;28;3943;-66
2023/08/01 11:39:58;;;;;;;;;;;;;;;22.12;60.41;99210.13;5061005;28;3996;-67
2023/08/01 11:42:24;;;;;;;;;;;;;;;22.11;60.69;99203.63;5061625;28;4178;-66
2023/08/01 11:44:51;;;;;;;;;;;;;;;22.11;60.48;99209.41;5060290;28;4163;-66
2023/08/01 11:47:17;;;;;;;;;;;;;;;22.11;60.43;99203.63;5061384;28;4103;-66
2023/08/01 11:49:47;;;;;;;;;;;;;;;22.12;60.43;99215.91;5060205;28;4263;-66
2023/08/01 11:52:26;;;;;;;;;;;;;;;22.11;60.37;99223.81;5061020;28;4062;-66
2023/08/01 11:54:54;;;;;;;;;;;;;;;22.10;60.63;99219.47;5059912;28;4183;-66
2023/08/01 11:57:21;;;;;;;;;;;;;;;22.09;60.79;99223.06;5060923;28;3988;-66
2023/08/01 11:59:51;;;;;;;;;;;;;;;22.11;60.58;99229.59;5060585;28;4504;-66
2023/08/01 12:02:27;;;;;;;;;;;;;;;22.12;60.44;99238.94;5061727;28;4463;-66
2023/08/01 12:04:54;;;;;;;;;;;;;;;22.11;60.39;99238.22;5060148;28;4138;-66
2023/08/01 12:07:21;;;;;;;;;;;;;;;22.11;60.50;99232.47;5061952;28;4016;-66
2023/08/01 12:09:56;;;;;;;;;;;;;;;22.12;60.63;99233.91;5060119;28;4141;-66
2023/08/01 12:12:23;;;;;;;;;;;;;;;22.11;60.62;99241.13;5059143;28;4069;-67
2023/08/01 12:14:50;;;;;;;;;;;;;;;22.11;60.74;99238.22;5059140;28;4179;-66
2023/08/01 12:17:16;;;;;;;;;;;;;;;22.12;60.69;99239.66;5060852;28;4523;-66
2023/08/01 12:19:42;;;;;;;;;;;;;;;22.12;60.66;99239.66;5060429;28;4060;-66
2023/08/01 12:22:09;;;;;;;;;;;;;;;22.12;60.40;99233.91;5060659;28;4151;-66
2023/08/01 12:24:37;;;;;;;;;;;;;;;22.12;60.42;99239.66;5058625;28;4589;-66
2023/08/01 12:27:07;;;;;;;;;;;;;;;22.10;60.63;99231.00;5058884;28;4445;-67
2023/08/01 12:29:33;;;;;;;;;;;;;;;22.11;60.46;99232.47;5059954;28;4032;-66
2023/08/01 12:32:00;;;;;;;;;;;;;;;22.11;60.57;99232.47;5060206;28;4000;-66
2023/08/01 12:34:26;;;;;;;;;;;;;;;22.09;60.52;99232.44;5060617;28;4141;-66
2023/08/01 12:36:53;;;;;;;;;;;;;;;22.11;60.58;99244.00;5059310;28;4095;-66
2023/08/01 12:39:19;;;;;;;;;;;;;;;22.10;60.50;99236.75;5061201;28;4195;-66
2023/08/01 12:41:46;;;;;;;;;;;;;;;22.11;60.72;99235.34;5059432;28;4076;-66
2023/08/01 12:44:15;;;;;;;;;;;;;;;22.09;60.38;99243.97;5060471;28;4254;-66
2023/08/01 12:46:42;;;;;;;;;;;;;;;22.10;60.41;99242.53;5059620;28;4281;-66
2023/08/01 12:49:09;;;;;;;;;;;;;;;22.11;60.60;99238.22;5060195;28;3939;-66
2023/08/01 12:51:35;;;;;;;;;;;;;;;22.11;60.49;99228.88;5057186;28;3954;-66
2023/08/01 12:54:02;;;;;;;;;;;;;;;22.11;60.48;99232.47;5059848;28;4225;-67
2023/08/01 12:56:28;;;;;;;;;;;;;;;22.11;60.75;99229.59;5060642;28;4139;-67